Time;durP1;ratioP1;P1;durP2;ratioP2;P2;SDS_P1;SDS_P2;PMS_P1;PMS_P2;Temp;Humidity;BMP_temperature;BMP_pressure;BME280_temperature;BME280_humidity;BME280_pressure;Samples;Min_cycle;Max_cycle;Signal;HPM_P1;HPM_P2
2022/06/26 00:00:16;;;;;;;3.08;2.10;;;17.10;99.90;;;;;;5008209;28;20030;-39
2022/06/26 00:02:41;;;;;;;4.75;2.10;;;17.10;99.90;;;;;;5007301;28;20527;-38
2022/06/26 00:05:07;;;;;;;2.92;2.25;;;17.10;99.90;;;;;;5006161;28;20064;-39
2022/06/26 00:07:34;;;;;;;2.70;1.88;;;17.00;99.90;;;;;;5007300;28;20144;-39
2022/06/26 00:10:00;;;;;;;2.10;1.90;;;16.90;99.90;;;;;;5007051;28;20057;-38
2022/06/26 00:12:26;;;;;;;2.20;2.00;;;16.70;99.90;;;;;;5005741;28;20057;-35
2022/06/26 00:14:52;;;;;;;2.20;2.00;;;16.70;99.90;;;;;;5007616;28;20069;-38
2022/06/26 00:17:18;;;;;;;2.17;1.90;;;16.70;99.90;;;;;;5005885;28;20109;-38
2022/06/26 00:19:44;;;;;;;1.70;1.60;;;16.70;99.90;;;;;;5009480;28;20030;-36
2022/06/26 00:22:09;;;;;;;2.20;2.00;;;16.70;99.90;;;;;;5006933;28;20386;-38
2022/06/26 00:24:37;;;;;;;3.72;1.70;;;16.70;99.90;;;;;;5004187;28;21057;-39
2022/06/26 00:27:03;;;;;;;1.70;1.60;;;16.70;99.90;;;;;;5005786;28;20064;-37
2022/06/26 00:29:32;;;;;;;4.75;1.70;;;16.70;99.90;;;;;;5006204;28;20046;-38
2022/06/26 00:31:58;;;;;;;2.15;1.80;;;16.60;99.90;;;;;;5005626;28;20037;-39
2022/06/26 00:34:23;;;;;;;1.70;1.60;;;16.60;99.90;;;;;;5006221;28;20426;-36
2022/06/26 00:36:49;;;;;;;2.00;1.65;;;16.70;99.90;;;;;;5005748;28;20022;-37
2022/06/26 00:39:15;;;;;;;1.88;1.70;;;16.60;99.90;;;;;;5007191;28;20066;-38
2022/06/26 00:41:40;;;;;;;2.42;1.70;;;16.60;99.90;;;;;;5005844;28;20507;-36
2022/06/26 00:44:16;;;;;;;1.70;1.60;;;16.30;99.90;;;;;;5004338;28;20022;-39
2022/06/26 00:46:43;;;;;;;1.70;1.58;;;16.20;99.90;;;;;;5003733;28;20064;-39
2022/06/26 00:49:10;;;;;;;1.33;1.23;;;16.20;99.90;;;;;;5001955;28;20045;-37
2022/06/26 00:51:43;;;;;;;3.33;1.63;;;16.30;99.90;;;;;;5004097;28;20029;-37
2022/06/26 00:54:09;;;;;;;1.40;1.30;;;16.40;99.90;;;;;;5005781;28;20038;-37
2022/06/26 00:56:36;;;;;;;1.83;1.73;;;16.30;99.90;;;;;;5005349;28;20144;-38
2022/06/26 00:59:02;;;;;;;1.70;1.60;;;16.30;99.90;;;;;;5003389;28;20105;-38
2022/06/26 01:01:28;;;;;;;2.35;1.83;;;16.30;99.90;;;;;;5001892;28;20049;-38
2022/06/26 01:03:53;;;;;;;2.78;1.70;;;16.30;99.90;;;;;;5006336;28;20029;-38
2022/06/26 01:06:19;;;;;;;1.90;1.67;;;16.30;99.90;;;;;;5003001;28;20053;-38
2022/06/26 01:08:46;;;;;;;1.63;1.52;;;16.30;99.90;;;;;;5004422;28;20034;-38
2022/06/26 01:11:17;;;;;;;1.80;1.70;;;16.20;99.90;;;;;;5004972;28;20037;-38
2022/06/26 01:13:48;;;;;;;4.03;1.60;;;16.20;99.90;;;;;;5003611;28;20069;-36
2022/06/26 01:16:15;;;;;;;3.00;1.70;;;16.10;99.90;;;;;;5005946;28;20163;-38
2022/06/26 01:18:43;;;;;;;3.00;1.90;;;16.10;99.90;;;;;;5001379;28;20106;-39
2022/06/26 01:21:08;;;;;;;2.20;1.88;;;16.00;99.90;;;;;;5000653;28;20042;-38
2022/06/26 01:23:34;;;;;;;1.77;1.67;;;15.90;99.90;;;;;;5004223;28;20044;-39
2022/06/26 01:25:59;;;;;;;2.05;1.77;;;15.70;99.90;;;;;;5004243;28;20036;-35
2022/06/26 01:28:25;;;;;;;2.90;1.60;;;15.60;99.90;;;;;;5003622;28;20483;-38
2022/06/26 01:30:51;;;;;;;2.63;1.85;;;15.50;99.90;;;;;;5004045;28;20041;-39
2022/06/26 01:33:17;;;;;;;2.80;1.75;;;15.60;99.90;;;;;;5005495;28;20038;-37
2022/06/26 01:35:42;;;;;;;2.03;1.80;;;15.70;99.90;;;;;;5003727;28;20025;-38
2022/06/26 01:38:28;;;;;;;3.45;1.80;;;15.60;99.90;;;;;;5002119;28;20092;-39
2022/06/26 01:40:56;;;;;;;2.47;1.55;;;15.60;99.90;;;;;;5004402;28;20057;-39
2022/06/26 01:43:24;;;;;;;1.90;1.80;;;15.60;99.90;;;;;;5003274;28;20029;-39
2022/06/26 01:45:52;;;;;;;2.10;1.90;;;15.70;99.90;;;;;;5003011;28;20065;-38
2022/06/26 01:48:18;;;;;;;3.05;2.58;;;15.50;99.90;;;;;;5001959;28;20858;-39
2022/06/26 01:50:45;;;;;;;2.38;2.17;;;15.30;99.90;;;;;;5001982;28;20080;-38
2022/06/26 01:53:11;;;;;;;2.13;1.90;;;15.30;99.90;;;;;;5002406;28;20434;-38
2022/06/26 01:55:37;;;;;;;1.73;1.63;;;15.20;99.90;;;;;;5003128;28;20491;-36
2022/06/26 01:58:03;;;;;;;2.78;2.00;;;15.00;99.90;;;;;;5003274;28;20037;-37
2022/06/26 02:00:31;;;;;;;2.92;2.00;;;15.20;99.90;;;;;;5004361;28;20446;-38
2022/06/26 02:02:58;;;;;;;2.42;2.10;;;15.30;99.90;;;;;;5004254;28;20100;-35
2022/06/26 02:05:24;;;;;;;4.53;2.17;;;15.10;99.90;;;;;;5004473;28;20443;-39
2022/06/26 02:07:50;;;;;;;3.33;1.90;;;15.10;99.90;;;;;;5003489;28;20083;-36
2022/06/26 02:15:51;;;;;;;4.00;1.85;;;15.40;99.90;;;;;;5004222;28;20033;-36
2022/06/26 02:18:17;;;;;;;1.98;1.88;;;15.40;99.90;;;;;;5004625;28;20475;-39
2022/06/26 02:20:42;;;;;;;2.15;1.67;;;15.50;99.90;;;;;;5000687;28;20026;-36
2022/06/26 02:23:09;;;;;;;2.45;1.90;;;15.50;99.90;;;;;;5003137;28;20026;-38
2022/06/26 02:25:34;;;;;;;2.47;2.20;;;15.50;99.90;;;;;;5004213;28;20037;-39
2022/06/26 02:28:00;;;;;;;3.03;1.80;;;15.20;99.90;;;;;;5002720;28;20048;-38
2022/06/26 02:30:26;;;;;;;3.88;2.28;;;15.30;99.90;;;;;;5002709;28;20050;-39
2022/06/26 02:32:52;;;;;;;2.67;2.30;;;15.20;99.90;;;;;;5001176;28;20438;-38
2022/06/26 02:35:18;;;;;;;2.60;2.08;;;15.00;99.90;;;;;;5002325;28;20388;-38
2022/06/26 02:37:44;;;;;;;2.45;2.25;;;15.00;99.90;;;;;;5004254;28;20177;-37
2022/06/26 02:40:10;;;;;;;2.15;2.00;;;15.00;99.90;;;;;;5003203;28;20068;-36
2022/06/26 02:42:35;;;;;;;2.10;1.77;;;15.10;99.90;;;;;;5005084;28;20057;-39
2022/06/26 02:45:01;;;;;;;2.10;1.77;;;15.20;99.90;;;;;;5007378;28;20026;-37
2022/06/26 02:47:26;;;;;;;2.72;2.03;;;15.30;99.90;;;;;;5004743;28;20035;-39
2022/06/26 02:49:52;;;;;;;2.95;2.00;;;15.30;99.90;;;;;;5006553;28;20451;-38
2022/06/26 02:52:17;;;;;;;2.60;2.10;;;15.40;99.90;;;;;;5005124;28;20057;-36
2022/06/26 02:54:43;;;;;;;2.10;1.90;;;15.30;99.90;;;;;;5006462;28;20084;-38
2022/06/26 02:57:09;;;;;;;2.45;2.25;;;15.20;99.90;;;;;;5006178;28;20501;-39
2022/06/26 02:59:34;;;;;;;2.92;1.90;;;15.10;99.90;;;;;;5009028;28;20505;-39
2022/06/26 03:02:00;;;;;;;3.50;1.83;;;15.30;99.90;;;;;;5010553;28;20041;-37
2022/06/26 03:04:25;;;;;;;4.53;1.77;;;15.30;99.90;;;;;;5013194;28;20061;-39
2022/06/26 03:06:51;;;;;;;1.77;1.63;;;15.00;99.90;;;;;;5009902;28;20781;-36
2022/06/26 03:09:17;;;;;;;1.60;1.50;;;15.00;99.90;;;;;;5007721;28;20045;-37
2022/06/26 03:11:42;;;;;;;1.92;1.83;;;15.00;99.90;;;;;;5006529;28;20493;-36
2022/06/26 03:14:08;;;;;;;1.80;1.70;;;15.00;99.90;;;;;;5004339;28;20439;-38
2022/06/26 03:16:34;;;;;;;1.98;1.88;;;14.70;99.90;;;;;;5008619;28;20114;-36
2022/06/26 03:19:00;;;;;;;3.13;1.83;;;14.70;99.90;;;;;;5006290;28;20018;-39
2022/06/26 03:21:26;;;;;;;2.70;2.00;;;14.80;99.90;;;;;;5006683;28;20029;-35
2022/06/26 03:24:01;;;;;;;1.75;1.65;;;14.80;99.90;;;;;;5005233;28;20084;-38
2022/06/26 03:26:27;;;;;;;1.90;1.80;;;14.90;99.90;;;;;;5005713;28;20034;-37
2022/06/26 03:28:53;;;;;;;2.17;1.80;;;14.90;99.90;;;;;;5006286;28;20379;-37
2022/06/26 03:31:19;;;;;;;1.73;1.63;;;14.80;99.90;;;;;;5002603;28;20041;-39
2022/06/26 03:33:44;;;;;;;2.55;1.77;;;14.70;99.90;;;;;;5005137;28;20690;-39
2022/06/26 03:36:10;;;;;;;2.20;1.70;;;14.50;99.90;;;;;;5006182;28;20112;-38
2022/06/26 03:38:36;;;;;;;1.90;1.80;;;14.50;99.90;;;;;;5002913;28;20042;-37
2022/06/26 03:41:02;;;;;;;2.40;2.30;;;14.60;99.90;;;;;;5006565;28;20131;-37
2022/06/26 03:43:28;;;;;;;2.25;2.08;;;14.60;99.90;;;;;;5003213;28;20471;-37
2022/06/26 03:45:53;;;;;;;2.53;2.00;;;14.40;99.90;;;;;;5004665;28;20586;-38
2022/06/26 03:48:19;;;;;;;3.25;2.10;;;14.50;99.90;;;;;;5004126;28;20107;-38
2022/06/26 03:50:45;;;;;;;3.70;2.17;;;14.60;99.90;;;;;;5004802;28;20447;-38
2022/06/26 03:53:10;;;;;;;2.13;2.00;;;14.50;99.90;;;;;;5004838;28;20022;-35
2022/06/26 03:55:36;;;;;;;2.53;2.33;;;14.50;99.90;;;;;;5005990;28;20514;-36
2022/06/26 03:58:02;;;;;;;3.40;1.92;;;14.20;99.90;;;;;;5005825;28;20056;-38
2022/06/26 04:00:28;;;;;;;2.92;2.05;;;14.40;99.90;;;;;;5004322;28;21419;-37
2022/06/26 04:02:55;;;;;;;1.80;1.60;;;14.40;99.90;;;;;;5006846;28;20022;-38
2022/06/26 04:05:21;;;;;;;2.00;1.90;;;14.70;99.90;;;;;;5008320;28;20026;-39
2022/06/26 04:07:47;;;;;;;2.17;1.98;;;14.80;99.90;;;;;;5004902;28;20041;-39
2022/06/26 04:10:13;;;;;;;4.03;2.03;;;15.00;99.90;;;;;;5006352;28;20033;-38
2022/06/26 04:12:39;;;;;;;2.10;1.90;;;15.10;99.90;;;;;;5003498;28;20129;-38
2022/06/26 04:15:05;;;;;;;2.90;1.77;;;15.20;99.90;;;;;;5006025;28;20966;-37
2022/06/26 04:17:31;;;;;;;2.97;2.00;;;15.30;99.90;;;;;;5008601;28;20471;-38
2022/06/26 04:19:56;;;;;;;2.17;1.60;;;15.30;99.90;;;;;;5010318;28;20049;-37
2022/06/26 04:22:22;;;;;;;3.67;1.70;;;15.20;99.90;;;;;;5010022;28;20097;-39
2022/06/26 04:24:48;;;;;;;3.30;1.98;;;15.30;99.90;;;;;;5006558;28;20034;-38
2022/06/26 04:27:14;;;;;;;3.15;1.80;;;15.30;99.90;;;;;;5009889;28;20105;-37
2022/06/26 04:29:40;;;;;;;2.20;2.00;;;15.10;99.90;;;;;;5008182;28;20109;-37
2022/06/26 04:32:06;;;;;;;5.30;2.00;;;15.10;99.90;;;;;;5008669;28;20026;-39
2022/06/26 04:34:32;;;;;;;2.42;2.10;;;15.10;99.90;;;;;;5011565;28;20037;-38
2022/06/26 04:36:58;;;;;;;1.92;1.83;;;15.00;99.90;;;;;;5005878;28;20025;-38
2022/06/26 04:39:24;;;;;;;3.60;2.40;;;15.10;99.90;;;;;;5009585;28;20030;-37
2022/06/26 04:41:50;;;;;;;2.17;1.85;;;15.00;99.90;;;;;;5009007;28;20030;-36
2022/06/26 04:44:17;;;;;;;3.10;2.00;;;15.00;99.90;;;;;;5006306;28;20127;-36
2022/06/26 04:46:46;;;;;;;1.83;1.70;;;15.20;99.90;;;;;;5009336;28;20045;-38
2022/06/26 04:49:12;;;;;;;2.35;1.90;;;15.20;99.90;;;;;;5006092;28;20033;-38
2022/06/26 04:51:38;;;;;;;2.13;1.90;;;15.20;99.90;;;;;;5009880;28;20022;-39
2022/06/26 04:54:07;;;;;;;2.53;2.25;;;15.30;99.90;;;;;;5005323;28;20430;-38
2022/06/26 04:56:34;;;;;;;3.80;2.00;;;15.40;99.90;;;;;;5009703;28;20039;-36
2022/06/26 04:58:59;;;;;;;2.15;1.95;;;15.30;99.90;;;;;;5008979;28;20025;-39
2022/06/26 05:01:26;;;;;;;3.63;1.90;;;15.30;99.90;;;;;;5010023;28;20514;-35
2022/06/26 05:03:52;;;;;;;2.38;2.13;;;15.30;99.90;;;;;;5010302;28;20032;-37
2022/06/26 05:06:18;;;;;;;2.33;2.13;;;15.40;99.90;;;;;;5009881;28;20042;-39
2022/06/26 05:08:44;;;;;;;4.55;2.40;;;15.40;99.90;;;;;;5008871;28;20076;-39
2022/06/26 05:11:09;;;;;;;3.10;2.22;;;15.40;99.90;;;;;;5008992;28;20383;-36
2022/06/26 05:13:35;;;;;;;3.53;1.95;;;15.60;99.90;;;;;;5007170;28;20025;-35
2022/06/26 05:16:01;;;;;;;2.53;2.33;;;15.80;99.90;;;;;;5008162;28;20087;-36
2022/06/26 05:18:27;;;;;;;2.80;2.22;;;16.00;99.90;;;;;;5009076;28;20506;-38
2022/06/26 05:20:53;;;;;;;3.08;2.00;;;16.10;99.90;;;;;;5009056;28;20071;-39
2022/06/26 05:23:19;;;;;;;2.47;2.20;;;16.20;99.90;;;;;;5002673;28;20022;-39
2022/06/26 05:25:45;;;;;;;2.20;2.00;;;16.40;99.90;;;;;;5008788;28;20522;-37
2022/06/26 05:28:11;;;;;;;2.30;2.10;;;16.60;99.90;;;;;;5009351;28;20376;-37
2022/06/26 05:30:36;;;;;;;2.13;2.00;;;16.80;99.90;;;;;;5007037;28;20057;-38
2022/06/26 05:33:03;;;;;;;2.90;2.05;;;17.00;99.90;;;;;;5004276;28;20041;-36
2022/06/26 05:35:29;;;;;;;3.13;1.90;;;17.10;99.90;;;;;;5004010;28;20414;-39
2022/06/26 05:37:55;;;;;;;2.20;2.10;;;17.40;99.90;;;;;;5006280;28;20472;-39
2022/06/26 05:40:21;;;;;;;2.38;2.00;;;17.40;99.90;;;;;;5009074;28;20594;-37
2022/06/26 05:42:47;;;;;;;2.05;1.85;;;17.40;99.90;;;;;;5005292;28;20152;-39
2022/06/26 05:45:12;;;;;;;3.40;2.20;;;17.70;99.90;;;;;;5008425;28;20026;-39
2022/06/26 05:47:38;;;;;;;3.00;2.28;;;17.90;99.90;;;;;;5008654;28;20033;-39
2022/06/26 05:50:05;;;;;;;2.55;2.35;;;18.00;99.90;;;;;;5008085;28;20084;-38
2022/06/26 05:52:30;;;;;;;3.45;2.42;;;18.00;99.90;;;;;;5009174;28;20018;-36
2022/06/26 05:54:56;;;;;;;2.70;2.47;;;18.00;99.90;;;;;;5004312;28;20029;-35
2022/06/26 05:57:22;;;;;;;2.55;2.30;;;17.90;99.90;;;;;;5006732;28;20526;-39
2022/06/26 05:59:47;;;;;;;3.10;2.22;;;18.20;99.90;;;;;;5008772;28;20130;-39
2022/06/26 06:02:13;;;;;;;2.65;2.45;;;18.60;99.90;;;;;;5008436;28;20033;-38
2022/06/26 06:04:39;;;;;;;3.15;2.05;;;18.90;99.90;;;;;;5008220;28;20537;-38
2022/06/26 06:07:05;;;;;;;2.50;2.30;;;19.30;99.90;;;;;;5008032;28;20056;-38
2022/06/26 06:09:31;;;;;;;3.03;2.05;;;19.10;99.90;;;;;;5009108;28;20036;-39
2022/06/26 06:11:56;;;;;;;2.50;2.30;;;19.10;99.90;;;;;;5007684;28;20025;-37
2022/06/26 06:14:22;;;;;;;2.42;1.92;;;19.40;99.90;;;;;;5009059;28;20076;-37
2022/06/26 06:16:47;;;;;;;1.88;1.60;;;19.50;99.90;;;;;;5007363;28;20492;-39
2022/06/26 06:19:13;;;;;;;2.17;1.98;;;19.60;99.90;;;;;;5008818;28;20475;-39
2022/06/26 06:21:39;;;;;;;3.05;2.15;;;19.60;99.90;;;;;;5009077;28;20389;-38
2022/06/26 06:24:04;;;;;;;2.58;2.00;;;19.90;99.90;;;;;;5007624;28;20030;-39
2022/06/26 06:26:30;;;;;;;3.80;2.03;;;20.00;99.90;;;;;;5013024;28;20514;-36
2022/06/26 06:28:56;;;;;;;2.10;1.90;;;20.20;99.90;;;;;;5009670;28;20029;-39
2022/06/26 06:31:21;;;;;;;3.70;1.90;;;20.20;99.90;;;;;;5008060;28;20507;-36
2022/06/26 06:33:47;;;;;;;2.00;1.90;;;20.40;99.90;;;;;;5008549;28;20510;-38
2022/06/26 06:36:12;;;;;;;2.50;1.73;;;20.40;99.90;;;;;;5008320;28;20092;-35
2022/06/26 06:38:38;;;;;;;1.92;1.73;;;20.40;99.90;;;;;;5009173;28;20489;-39
2022/06/26 06:41:04;;;;;;;2.13;2.00;;;20.60;99.90;;;;;;5006894;28;20364;-39
2022/06/26 06:43:30;;;;;;;2.20;2.00;;;20.90;99.90;;;;;;5007763;28;20476;-38
2022/06/26 06:45:55;;;;;;;1.67;1.58;;;20.90;99.90;;;;;;5009388;28;20034;-37
2022/06/26 06:48:24;;;;;;;2.13;1.92;;;21.10;99.90;;;;;;5013149;28;20026;-38
2022/06/26 06:50:51;;;;;;;1.70;1.60;;;21.30;99.90;;;;;;5009497;28;20069;-38
2022/06/26 06:53:17;;;;;;;3.20;1.98;;;21.10;99.90;;;;;;5008671;28;20041;-38
2022/06/26 06:55:42;;;;;;;2.50;1.70;;;21.40;99.90;;;;;;5007038;28;20478;-38
2022/06/26 06:58:08;;;;;;;3.45;1.80;;;21.70;99.90;;;;;;5007430;28;20041;-37
2022/06/26 07:00:34;;;;;;;2.38;2.17;;;21.80;98.60;;;;;;5000237;28;20030;-38
2022/06/26 07:03:03;;;;;;;2.15;1.90;;;21.60;99.90;;;;;;5007757;28;20770;-35
2022/06/26 07:05:30;;;;;;;1.50;1.40;;;21.80;98.00;;;;;;5007324;28;20419;-36
2022/06/26 07:07:55;;;;;;;1.58;1.48;;;21.60;99.90;;;;;;5002547;28;20054;-39
2022/06/26 07:10:21;;;;;;;1.58;1.48;;;21.90;97.80;;;;;;5007035;28;20030;-39
2022/06/26 07:12:58;;;;;;;2.03;1.75;;;22.20;98.40;;;;;;5008204;28;20109;-37
2022/06/26 07:15:25;;;;;;;2.58;1.80;;;22.20;99.20;;;;;;5007756;28;20026;-37
2022/06/26 07:17:51;;;;;;;1.88;1.77;;;22.60;98.20;;;;;;5005082;28;20046;-38
2022/06/26 07:20:16;;;;;;;2.42;2.13;;;22.80;95.00;;;;;;5003138;28;20111;-37
2022/06/26 07:22:42;;;;;;;2.85;1.90;;;23.10;97.00;;;;;;5007761;28;20140;-38
2022/06/26 07:25:08;;;;;;;2.17;1.75;;;23.10;95.10;;;;;;5007165;28;20526;-36
2022/06/26 07:27:34;;;;;;;1.80;1.70;;;23.30;93.80;;;;;;5008374;28;20061;-37
2022/06/26 07:30:00;;;;;;;2.00;1.90;;;23.40;94.30;;;;;;5011889;28;20123;-38
2022/06/26 07:32:27;;;;;;;2.33;2.03;;;23.40;94.00;;;;;;5011369;28;20061;-38
2022/06/26 07:34:53;;;;;;;2.42;1.90;;;23.30;94.20;;;;;;5008398;28;20117;-38
2022/06/26 07:37:19;;;;;;;2.55;2.00;;;23.20;92.40;;;;;;5010550;28;20137;-36
2022/06/26 07:39:45;;;;;;;1.65;1.55;;;23.20;93.40;;;;;;5010631;28;20026;-39
2022/06/26 07:42:10;;;;;;;2.10;1.80;;;23.10;92.80;;;;;;5011625;28;20590;-38
2022/06/26 07:44:36;;;;;;;2.10;1.80;;;23.20;91.90;;;;;;5011541;28;20487;-37
2022/06/26 07:47:02;;;;;;;1.92;1.83;;;23.40;92.60;;;;;;5007637;28;20041;-38
2022/06/26 07:49:28;;;;;;;3.17;1.70;;;23.40;92.40;;;;;;5008687;28;20038;-38
2022/06/26 07:51:53;;;;;;;3.08;1.70;;;23.30;91.50;;;;;;5011564;28;20029;-38
2022/06/26 07:54:19;;;;;;;2.00;1.80;;;23.90;90.30;;;;;;5013723;28;20026;-38
2022/06/26 07:56:46;;;;;;;1.92;1.83;;;24.30;89.00;;;;;;5009848;28;20087;-37
2022/06/26 07:59:12;;;;;;;2.65;1.75;;;24.70;84.60;;;;;;5010758;28;20026;-39
2022/06/26 08:01:37;;;;;;;1.80;1.70;;;25.10;81.60;;;;;;5006252;28;20105;-36
2022/06/26 08:04:03;;;;;;;4.63;1.50;;;25.00;69.70;;;;;;5008895;28;20018;-39
2022/06/26 08:06:29;;;;;;;1.83;1.50;;;24.50;73.80;;;;;;5011741;28;20038;-39
2022/06/26 08:08:55;;;;;;;3.00;1.48;;;24.50;82.20;;;;;;5004467;28;20520;-38
2022/06/26 08:11:22;;;;;;;1.80;1.70;;;25.10;78.40;;;;;;5010531;28;20061;-38
2022/06/26 08:13:47;;;;;;;1.65;1.55;;;25.60;78.40;;;;;;5010628;28;20038;-38
2022/06/26 08:16:14;;;;;;;2.20;2.00;;;25.70;73.70;;;;;;5009564;28;20036;-39
2022/06/26 08:18:39;;;;;;;1.95;1.85;;;25.20;77.00;;;;;;5009256;28;20033;-38
2022/06/26 08:23:55;;;;;;;1.77;1.55;;;24.60;87.80;;;;;;4982395;28;20091;-37
2022/06/26 08:26:21;;;;;;;2.47;1.90;;;25.10;81.40;;;;;;5007756;28;20030;-38
2022/06/26 08:28:47;;;;;;;2.45;2.00;;;25.00;80.60;;;;;;5008732;28;20042;-36
2022/06/26 08:31:12;;;;;;;2.28;1.70;;;24.90;88.90;;;;;;5009036;28;20042;-38
2022/06/26 08:33:38;;;;;;;1.65;1.55;;;24.90;83.00;;;;;;5002373;28;20044;-38
2022/06/26 08:36:04;;;;;;;1.65;1.55;;;24.80;79.40;;;;;;5008637;28;20064;-37
2022/06/26 08:38:30;;;;;;;1.60;1.50;;;25.40;76.30;;;;;;5007566;28;20069;-36
2022/06/26 08:40:59;;;;;;;1.70;1.60;;;25.60;76.30;;;;;;5005780;28;20487;-36
2022/06/26 08:43:25;;;;;;;1.50;1.40;;;25.80;73.90;;;;;;5011119;28;20034;-39
2022/06/26 08:45:54;;;;;;;1.98;1.60;;;26.00;72.70;;;;;;5000350;28;20030;-37
2022/06/26 08:48:24;;;;;;;1.50;1.40;;;26.40;71.30;;;;;;5009685;28;20120;-36
2022/06/26 08:50:50;;;;;;;1.85;1.70;;;26.80;72.50;;;;;;5006761;28;20045;-37
2022/06/26 08:53:16;;;;;;;1.90;1.80;;;27.10;65.80;;;;;;5003476;28;20505;-37
2022/06/26 08:55:43;;;;;;;6.60;2.30;;;26.60;65.10;;;;;;5011169;28;20025;-38
2022/06/26 08:58:09;;;;;;;2.13;1.90;;;25.90;69.20;;;;;;5007474;28;20096;-39
2022/06/26 09:00:35;;;;;;;1.80;1.70;;;25.70;71.00;;;;;;5010368;28;20056;-39
2022/06/26 09:03:01;;;;;;;2.10;2.00;;;25.60;69.00;;;;;;5010004;28;20033;-39
2022/06/26 09:05:26;;;;;;;2.20;2.00;;;25.60;74.90;;;;;;5008371;28;20100;-39
2022/06/26 09:07:53;;;;;;;2.00;1.90;;;25.70;80.20;;;;;;5011021;28;20046;-35
2022/06/26 09:10:20;;;;;;;3.13;1.98;;;25.60;78.50;;;;;;5009051;28;20125;-37
2022/06/26 09:12:53;;;;;;;2.40;1.93;;;25.60;76.00;;;;;;5010514;28;20422;-39
2022/06/26 09:15:20;;;;;;;2.13;2.03;;;25.70;75.40;;;;;;5010317;28;20044;-39
2022/06/26 09:17:57;;;;;;;1.90;1.80;;;25.70;78.90;;;;;;5008456;28;20034;-38
2022/06/26 09:20:22;;;;;;;6.57;2.13;;;25.80;70.30;;;;;;5008483;28;20034;-35
2022/06/26 09:22:53;;;;;;;1.92;1.52;;;25.90;75.80;;;;;;5010231;28;20040;-38
2022/06/26 09:25:18;;;;;;;1.73;1.63;;;26.00;68.20;;;;;;5009183;28;20033;-37
2022/06/26 09:27:45;;;;;;;1.90;1.80;;;26.00;71.80;;;;;;5007130;28;20045;-38
2022/06/26 09:30:11;;;;;;;1.77;1.67;;;26.10;71.80;;;;;;5009181;28;20036;-38
2022/06/26 09:32:36;;;;;;;2.95;1.67;;;26.10;67.30;;;;;;5008688;28;20038;-38
2022/06/26 09:35:02;;;;;;;3.25;1.48;;;26.20;76.00;;;;;;5008010;28;20026;-38
2022/06/26 09:37:36;;;;;;;1.80;1.70;;;26.20;67.10;;;;;;5007428;28;20072;-36
2022/06/26 09:40:03;;;;;;;1.85;1.75;;;26.40;67.80;;;;;;5005677;28;20042;-38
2022/06/26 09:42:33;;;;;;;1.60;1.40;;;26.40;73.50;;;;;;5010108;28;20467;-37
2022/06/26 09:45:01;;;;;;;1.60;1.50;;;26.60;72.90;;;;;;5009330;28;20076;-35
2022/06/26 09:47:28;;;;;;;1.70;1.60;;;26.60;67.80;;;;;;5009812;28;20038;-37
2022/06/26 09:49:55;;;;;;;2.75;1.52;;;26.60;69.50;;;;;;5008076;28;20125;-36
2022/06/26 09:52:22;;;;;;;;;;;26.70;69.30;;;;;;5008417;28;20841;-35
2022/06/26 09:54:48;;;;;;;2.30;1.73;;;26.70;62.70;;;;;;5009288;28;19936;-35
2022/06/26 09:57:16;;;;;;;1.40;1.30;;;26.70;67.50;;;;;;5007070;28;20040;-39
2022/06/26 09:59:42;;;;;;;1.73;1.38;;;26.90;62.10;;;;;;5008197;28;20122;-36
2022/06/26 10:07:55;;;;;;;1.80;1.70;;;27.70;60.90;;;;;;5008647;28;20065;-39
2022/06/26 10:10:23;;;;;;;1.53;1.47;;;27.50;62.50;;;;;;5006368;28;20070;-39
2022/06/26 10:12:52;;;;;;;;;;;27.30;63.40;;;;;;5009178;28;20025;-39
2022/06/26 10:15:18;;;;;;;1.38;1.38;;;27.20;66.20;;;;;;5011153;28;19920;-37
2022/06/26 10:18:01;;;;;;;1.53;1.43;;;27.20;62.50;;;;;;5007355;28;20030;-38
2022/06/26 10:20:30;;;;;;;1.92;1.38;;;27.10;61.10;;;;;;5006867;28;20034;-37
2022/06/26 10:22:56;;;;;;;1.77;1.40;;;27.10;59.50;;;;;;5008568;28;20112;-36
2022/06/26 10:25:30;;;;;;;1.52;1.42;;;27.10;62.50;;;;;;5007608;28;20125;-37
2022/06/26 10:27:56;;;;;;;1.60;1.50;;;27.10;61.30;;;;;;5005992;28;20026;-39
2022/06/26 10:30:25;;;;;;;1.55;1.48;;;27.30;66.00;;;;;;5007371;28;20057;-38
2022/06/26 10:33:14;;;;;;;1.60;1.50;;;27.30;64.50;;;;;;5008359;28;20030;-39
2022/06/26 10:35:47;;;;;;;1.75;1.40;;;27.30;69.70;;;;;;5008321;28;20589;-36
2022/06/26 10:38:21;;;;;;;1.75;1.17;;;27.20;63.80;;;;;;5006187;28;20072;-39
2022/06/26 10:43:55;;;;;;;1.60;1.50;;;27.10;62.00;;;;;;5005152;28;20084;-37
2022/06/26 10:46:21;;;;;;;1.17;1.17;;;27.10;61.50;;;;;;5020828;28;20494;-38
2022/06/26 10:48:55;;;;;;;1.15;1.15;;;27.00;57.10;;;;;;5008427;28;20076;-37
2022/06/26 10:51:29;;;;;;;1.48;1.38;;;27.10;57.00;;;;;;5005193;28;20057;-36
2022/06/26 10:53:57;;;;;;;1.20;1.20;;;27.00;61.50;;;;;;5003453;28;20497;-38
2022/06/26 10:56:23;;;;;;;1.05;1.05;;;27.00;58.50;;;;;;5006053;28;20414;-39
2022/06/26 10:58:57;;;;;;;1.50;1.40;;;27.10;58.90;;;;;;5005989;28;20053;-36
2022/06/26 11:01:24;;;;;;;1.65;1.30;;;27.30;65.00;;;;;;5005232;28;20034;-38
2022/06/26 11:03:50;;;;;;;1.83;1.33;;;27.40;57.20;;;;;;5005941;28;20025;-37
2022/06/26 11:06:18;;;;;;;1.38;1.27;;;27.40;61.70;;;;;;5012333;28;20566;-35
2022/06/26 11:08:47;;;;;;;;;;;27.30;55.50;;;;;;5010739;28;20463;-36
2022/06/26 11:11:20;;;;;;;1.33;1.23;;;27.30;56.00;;;;;;5010462;28;20322;-37
2022/06/26 11:13:54;;;;;;;1.27;1.27;;;27.30;56.40;;;;;;5011855;28;20034;-37
2022/06/26 11:16:30;;;;;;;1.35;1.20;;;27.20;61.00;;;;;;5013537;28;20759;-37
2022/06/26 11:18:57;;;;;;;1.37;1.20;;;27.30;57.30;;;;;;5008969;28;20022;-39
2022/06/26 11:21:22;;;;;;;2.47;1.08;;;27.30;59.20;;;;;;5009283;28;20030;-36
2022/06/26 11:23:51;;;;;;;1.38;1.27;;;27.20;61.70;;;;;;5011708;28;20029;-39
2022/06/26 11:26:20;;;;;;;1.20;1.20;;;27.30;61.40;;;;;;5011602;28;20026;-39
2022/06/26 11:28:46;;;;;;;1.38;1.10;;;27.20;58.30;;;;;;5007999;28;20041;-39
2022/06/26 11:31:23;;;;;;;1.48;1.20;;;27.10;60.70;;;;;;5010770;28;20082;-36
2022/06/26 11:33:48;;;;;;;1.58;1.20;;;27.20;61.50;;;;;;5009117;28;20042;-39
2022/06/26 11:36:16;;;;;;;1.30;1.20;;;27.30;59.80;;;;;;5011544;28;20030;-38
2022/06/26 11:38:54;;;;;;;1.33;1.27;;;27.30;63.50;;;;;;5007808;28;20382;-37
2022/06/26 11:41:22;;;;;;;1.08;1.05;;;27.30;57.30;;;;;;5009500;28;20046;-37
2022/06/26 11:43:54;;;;;;;2.65;1.30;;;27.20;62.70;;;;;;5011792;28;20038;-37
2022/06/26 11:46:20;;;;;;;1.27;1.17;;;27.20;64.30;;;;;;5005171;28;20026;-39
2022/06/26 11:48:49;;;;;;;1.10;1.10;;;27.30;62.30;;;;;;5005273;28;20023;-38
2022/06/26 11:51:16;;;;;;;1.20;1.20;;;27.50;58.10;;;;;;5010573;28;20041;-39
2022/06/26 11:53:46;;;;;;;3.30;1.40;;;27.50;60.90;;;;;;5009165;28;20041;-39
2022/06/26 11:56:29;;;;;;;1.13;1.10;;;27.40;64.80;;;;;;5012166;28;20030;-38
2022/06/26 11:58:57;;;;;;;1.55;1.45;;;27.30;58.10;;;;;;5008585;28;20127;-38
2022/06/26 12:01:34;;;;;;;1.08;1.08;;;27.30;55.50;;;;;;5009677;28;20037;-39
2022/06/26 12:04:00;;;;;;;1.50;1.40;;;27.30;57.00;;;;;;5010828;28;20451;-37
2022/06/26 12:06:38;;;;;;;1.20;1.20;;;27.40;60.90;;;;;;5010857;28;20108;-39
2022/06/26 12:09:19;;;;;;;1.23;1.10;;;27.40;62.00;;;;;;5010230;28;20040;-38
2022/06/26 12:11:46;;;;;;;1.92;1.17;;;27.40;59.60;;;;;;5008324;28;20538;-39
2022/06/26 12:14:13;;;;;;;1.60;1.07;;;27.60;57.80;;;;;;5010874;28;20026;-38
2022/06/26 12:16:45;;;;;;;1.20;1.10;;;27.60;57.10;;;;;;5007973;28;20316;-36
2022/06/26 12:19:11;;;;;;;1.60;1.02;;;27.60;53.20;;;;;;5004839;28;20029;-39
2022/06/26 12:21:37;;;;;;;2.08;1.40;;;27.60;60.80;;;;;;5010482;28;20033;-38
2022/06/26 12:24:10;;;;;;;1.00;1.00;;;27.60;59.50;;;;;;5014513;28;20108;-38
2022/06/26 12:26:39;;;;;;;1.60;1.05;;;27.60;53.50;;;;;;5011441;28;20037;-39
2022/06/26 12:29:10;;;;;;;1.48;1.38;;;27.70;54.70;;;;;;5011172;28;20496;-38
2022/06/26 12:31:36;;;;;;;1.20;1.10;;;27.60;52.40;;;;;;5011224;28;20396;-37
2022/06/26 12:34:04;;;;;;;1.00;1.00;;;27.60;57.50;;;;;;5014193;28;20041;-37
2022/06/26 12:36:30;;;;;;;1.30;1.20;;;27.70;54.10;;;;;;5012414;28;20148;-37
2022/06/26 12:38:56;;;;;;;1.10;1.00;;;27.70;56.30;;;;;;5011671;28;20030;-39
2022/06/26 12:41:22;;;;;;;1.35;1.05;;;27.70;59.00;;;;;;5012339;28;20018;-38
2022/06/26 12:44:06;;;;;;;2.10;1.30;;;27.60;51.50;;;;;;5013183;28;20038;-39
2022/06/26 12:46:32;;;;;;;1.10;1.10;;;27.70;59.80;;;;;;5007626;28;20053;-38
2022/06/26 12:48:59;;;;;;;1.20;1.10;;;27.80;51.70;;;;;;5010611;28;20030;-39
2022/06/26 12:51:25;;;;;;;1.10;1.10;;;27.70;51.50;;;;;;5012093;28;20080;-38
2022/06/26 12:53:51;;;;;;;1.08;1.00;;;27.70;54.20;;;;;;5007288;28;20737;-38
2022/06/26 12:56:16;;;;;;;1.10;1.10;;;27.90;48.80;;;;;;5011571;28;20092;-39
2022/06/26 12:58:42;;;;;;;1.10;1.00;;;27.70;55.00;;;;;;5017154;28;20026;-38
2022/06/26 13:01:08;;;;;;;3.75;1.10;;;27.70;56.10;;;;;;5011071;28;20045;-39
2022/06/26 13:03:35;;;;;;;0.98;0.98;;;27.70;54.70;;;;;;5005009;28;20033;-39